sensor_id;sensor_type;location;lat;lon;timestamp;P1;durP1;ratioP1;P2;durP2;ratioP2
11797;SDS011;5956;51.428;6.682;2023-03-22T00:01:25;7.90;;;7.07;;
11797;SDS011;5956;51.428;6.682;2023-03-22T00:03:55;7.60;;;6.70;;
11797;SDS011;5956;51.428;6.682;2023-03-22T00:06:23;9.17;;;6.90;;
11797;SDS011;5956;51.428;6.682;2023-03-22T00:08:51;8.63;;;6.97;;
11797;SDS011;5956;51.428;6.682;2023-03-22T00:11:18;8.87;;;6.90;;
11797;SDS011;5956;51.428;6.682;2023-03-22T00:13:45;6.80;;;6.20;;
11797;SDS011;5956;51.428;6.682;2023-03-22T00:16:11;7.93;;;6.63;;
11797;SDS011;5956;51.428;6.682;2023-03-22T00:18:38;7.80;;;6.63;;
11797;SDS011;5956;51.428;6.682;2023-03-22T00:21:05;7.50;;;6.80;;
11797;SDS011;5956;51.428;6.682;2023-03-22T00:23:33;10.57;;;7.87;;
11797;SDS011;5956;51.428;6.682;2023-03-22T00:25:59;11.73;;;7.97;;
11797;SDS011;5956;51.428;6.682;2023-03-22T00:28:25;8.70;;;7.80;;
11797;SDS011;5956;51.428;6.682;2023-03-22T00:30:53;10.73;;;7.87;;
11797;SDS011;5956;51.428;6.682;2023-03-22T00:33:20;11.60;;;8.10;;
11797;SDS011;5956;51.428;6.682;2023-03-22T00:35:47;10.23;;;7.93;;
11797;SDS011;5956;51.428;6.682;2023-03-22T00:38:13;13.47;;;8.80;;
11797;SDS011;5956;51.428;6.682;2023-03-22T00:40:41;9.47;;;7.53;;
11797;SDS011;5956;51.428;6.682;2023-03-22T00:43:07;10.60;;;7.90;;
11797;SDS011;5956;51.428;6.682;2023-03-22T00:45:34;8.17;;;7.37;;
11797;SDS011;5956;51.428;6.682;2023-03-22T00:48:02;8.10;;;7.30;;
11797;SDS011;5956;51.428;6.682;2023-03-22T00:50:28;11.33;;;7.50;;
11797;SDS011;5956;51.428;6.682;2023-03-22T00:52:55;10.83;;;7.13;;
11797;SDS011;5956;51.428;6.682;2023-03-22T00:55:21;10.20;;;7.70;;
11797;SDS011;5956;51.428;6.682;2023-03-22T00:57:49;8.27;;;7.47;;
11797;SDS011;5956;51.428;6.682;2023-03-22T01:00:16;8.10;;;6.97;;
11797;SDS011;5956;51.428;6.682;2023-03-22T01:02:42;9.57;;;7.37;;
11797;SDS011;5956;51.428;6.682;2023-03-22T01:05:09;7.80;;;6.93;;
11797;SDS011;5956;51.428;6.682;2023-03-22T01:07:39;9.23;;;7.40;;
11797;SDS011;5956;51.428;6.682;2023-03-22T01:10:06;8.50;;;7.60;;
11797;SDS011;5956;51.428;6.682;2023-03-22T01:12:33;8.43;;;7.33;;
11797;SDS011;5956;51.428;6.682;2023-03-22T01:15:01;8.17;;;7.37;;
11797;SDS011;5956;51.428;6.682;2023-03-22T01:17:27;9.03;;;7.13;;
11797;SDS011;5956;51.428;6.682;2023-03-22T01:19:54;9.00;;;7.13;;
11797;SDS011;5956;51.428;6.682;2023-03-22T01:22:20;8.40;;;7.10;;
11797;SDS011;5956;51.428;6.682;2023-03-22T01:24:47;9.70;;;7.30;;
11797;SDS011;5956;51.428;6.682;2023-03-22T01:27:13;9.37;;;7.57;;
11797;SDS011;5956;51.428;6.682;2023-03-22T01:29:40;9.23;;;7.60;;
11797;SDS011;5956;51.428;6.682;2023-03-22T01:32:08;8.23;;;7.43;;
11797;SDS011;5956;51.428;6.682;2023-03-22T01:34:34;9.97;;;7.83;;
11797;SDS011;5956;51.428;6.682;2023-03-22T01:37:01;7.83;;;7.03;;
11797;SDS011;5956;51.428;6.682;2023-03-22T01:39:27;8.53;;;7.67;;
11797;SDS011;5956;51.428;6.682;2023-03-22T01:41:55;12.53;;;8.47;;
11797;SDS011;5956;51.428;6.682;2023-03-22T01:44:22;9.67;;;8.13;;
11797;SDS011;5956;51.428;6.682;2023-03-22T01:46:49;9.50;;;8.60;;
11797;SDS011;5956;51.428;6.682;2023-03-22T01:49:18;9.40;;;8.50;;
11797;SDS011;5956;51.428;6.682;2023-03-22T01:51:47;10.73;;;8.43;;
11797;SDS011;5956;51.428;6.682;2023-03-22T01:54:15;9.67;;;8.63;;
11797;SDS011;5956;51.428;6.682;2023-03-22T01:56:43;9.00;;;7.83;;
11797;SDS011;5956;51.428;6.682;2023-03-22T01:59:10;10.77;;;8.53;;
11797;SDS011;5956;51.428;6.682;2023-03-22T02:01:37;12.33;;;8.60;;
11797;SDS011;5956;51.428;6.682;2023-03-22T02:04:05;10.30;;;8.50;;
11797;SDS011;5956;51.428;6.682;2023-03-22T02:06:34;11.37;;;9.23;;
11797;SDS011;5956;51.428;6.682;2023-03-22T02:09:03;12.67;;;8.40;;
11797;SDS011;5956;51.428;6.682;2023-03-22T02:11:31;9.53;;;7.90;;
11797;SDS011;5956;51.428;6.682;2023-03-22T02:14:11;10.87;;;8.07;;
11797;SDS011;5956;51.428;6.682;2023-03-22T02:16:42;9.93;;;8.37;;
11797;SDS011;5956;51.428;6.682;2023-03-22T02:19:21;10.37;;;7.47;;
11797;SDS011;5956;51.428;6.682;2023-03-22T02:21:59;8.87;;;8.03;;
11797;SDS011;5956;51.428;6.682;2023-03-22T02:24:37;8.70;;;7.83;;
11797;SDS011;5956;51.428;6.682;2023-03-22T02:29:54;9.10;;;8.20;;
11797;SDS011;5956;51.428;6.682;2023-03-22T02:40:47;8.47;;;7.67;;
11797;SDS011;5956;51.428;6.682;2023-03-22T02:43:15;9.90;;;7.80;;
11797;SDS011;5956;51.428;6.682;2023-03-22T02:45:43;8.77;;;7.50;;
11797;SDS011;5956;51.428;6.682;2023-03-22T02:48:11;10.23;;;8.47;;
11797;SDS011;5956;51.428;6.682;2023-03-22T02:50:39;8.80;;;7.53;;
11797;SDS011;5956;51.428;6.682;2023-03-22T02:53:08;8.43;;;7.63;;
11797;SDS011;5956;51.428;6.682;2023-03-22T02:55:38;11.60;;;7.53;;
11797;SDS011;5956;51.428;6.682;2023-03-22T02:58:10;10.43;;;7.73;;
11797;SDS011;5956;51.428;6.682;2023-03-22T03:00:37;9.33;;;7.60;;
11797;SDS011;5956;51.428;6.682;2023-03-22T03:03:06;9.67;;;7.40;;
11797;SDS011;5956;51.428;6.682;2023-03-22T03:05:36;11.90;;;7.87;;
11797;SDS011;5956;51.428;6.682;2023-03-22T03:08:03;10.43;;;7.67;;
11797;SDS011;5956;51.428;6.682;2023-03-22T03:10:30;8.77;;;7.87;;
11797;SDS011;5956;51.428;6.682;2023-03-22T03:12:57;8.97;;;7.80;;
11797;SDS011;5956;51.428;6.682;2023-03-22T03:15:25;13.17;;;9.23;;
11797;SDS011;5956;51.428;6.682;2023-03-22T03:17:58;8.70;;;7.73;;
11797;SDS011;5956;51.428;6.682;2023-03-22T03:20:31;9.80;;;8.07;;
11797;SDS011;5956;51.428;6.682;2023-03-22T03:23:09;8.47;;;7.67;;
11797;SDS011;5956;51.428;6.682;2023-03-22T03:25:38;7.97;;;7.20;;
11797;SDS011;5956;51.428;6.682;2023-03-22T03:28:08;8.53;;;7.73;;
11797;SDS011;5956;51.428;6.682;2023-03-22T03:30:38;9.37;;;8.23;;
11797;SDS011;5956;51.428;6.682;2023-03-22T03:33:08;9.57;;;7.90;;
11797;SDS011;5956;51.428;6.682;2023-03-22T03:35:38;11.53;;;7.90;;
11797;SDS011;5956;51.428;6.682;2023-03-22T03:38:07;11.40;;;8.57;;
11797;SDS011;5956;51.428;6.682;2023-03-22T03:40:35;9.97;;;7.87;;
11797;SDS011;5956;51.428;6.682;2023-03-22T03:43:04;9.27;;;7.83;;
11797;SDS011;5956;51.428;6.682;2023-03-22T03:45:31;8.27;;;7.47;;
11797;SDS011;5956;51.428;6.682;2023-03-22T03:48:00;9.33;;;7.47;;
11797;SDS011;5956;51.428;6.682;2023-03-22T03:50:28;8.40;;;7.53;;
11797;SDS011;5956;51.428;6.682;2023-03-22T03:52:55;9.20;;;8.07;;
11797;SDS011;5956;51.428;6.682;2023-03-22T03:55:22;8.73;;;7.87;;
11797;SDS011;5956;51.428;6.682;2023-03-22T03:57:49;9.23;;;8.13;;
11797;SDS011;5956;51.428;6.682;2023-03-22T04:00:16;10.53;;;8.00;;
11797;SDS011;5956;51.428;6.682;2023-03-22T04:02:43;13.20;;;8.27;;
11797;SDS011;5956;51.428;6.682;2023-03-22T04:05:11;11.40;;;7.77;;
11797;SDS011;5956;51.428;6.682;2023-03-22T04:07:38;10.17;;;7.27;;
11797;SDS011;5956;51.428;6.682;2023-03-22T04:10:05;9.20;;;7.50;;
11797;SDS011;5956;51.428;6.682;2023-03-22T04:12:32;9.03;;;7.63;;
11797;SDS011;5956;51.428;6.682;2023-03-22T04:14:59;9.40;;;8.33;;
11797;SDS011;5956;51.428;6.682;2023-03-22T04:17:25;9.73;;;7.40;;
11797;SDS011;5956;51.428;6.682;2023-03-22T04:19:53;8.40;;;7.30;;
11797;SDS011;5956;51.428;6.682;2023-03-22T04:22:22;10.13;;;7.30;;
11797;SDS011;5956;51.428;6.682;2023-03-22T04:24:49;10.20;;;7.50;;
11797;SDS011;5956;51.428;6.682;2023-03-22T04:27:15;8.40;;;7.30;;
11797;SDS011;5956;51.428;6.682;2023-03-22T04:29:42;9.57;;;7.77;;
11797;SDS011;5956;51.428;6.682;2023-03-22T04:32:12;9.40;;;8.40;;
11797;SDS011;5956;51.428;6.682;2023-03-22T04:34:38;8.10;;;7.30;;
11797;SDS011;5956;51.428;6.682;2023-03-22T04:37:05;9.60;;;7.63;;
11797;SDS011;5956;51.428;6.682;2023-03-22T04:39:33;10.27;;;7.63;;
11797;SDS011;5956;51.428;6.682;2023-03-22T04:42:00;8.70;;;7.53;;
11797;SDS011;5956;51.428;6.682;2023-03-22T04:44:26;10.90;;;7.70;;
11797;SDS011;5956;51.428;6.682;2023-03-22T04:46:53;8.20;;;7.30;;
11797;SDS011;5956;51.428;6.682;2023-03-22T04:49:19;9.50;;;7.30;;
11797;SDS011;5956;51.428;6.682;2023-03-22T04:51:46;15.03;;;8.20;;
11797;SDS011;5956;51.428;6.682;2023-03-22T04:54:13;9.70;;;7.87;;
11797;SDS011;5956;51.428;6.682;2023-03-22T04:56:40;11.47;;;7.50;;
11797;SDS011;5956;51.428;6.682;2023-03-22T04:59:07;9.40;;;7.37;;
11797;SDS011;5956;51.428;6.682;2023-03-22T05:01:34;8.50;;;7.17;;
11797;SDS011;5956;51.428;6.682;2023-03-22T05:04:01;10.20;;;7.27;;
11797;SDS011;5956;51.428;6.682;2023-03-22T05:06:28;8.60;;;7.70;;
11797;SDS011;5956;51.428;6.682;2023-03-22T05:08:56;8.83;;;7.43;;
11797;SDS011;5956;51.428;6.682;2023-03-22T05:11:23;12.30;;;6.60;;
11797;SDS011;5956;51.428;6.682;2023-03-22T05:13:53;10.37;;;7.03;;
11797;SDS011;5956;51.428;6.682;2023-03-22T05:16:19;8.60;;;6.67;;
11797;SDS011;5956;51.428;6.682;2023-03-22T05:18:46;10.53;;;6.93;;
11797;SDS011;5956;51.428;6.682;2023-03-22T05:21:14;9.37;;;6.43;;
11797;SDS011;5956;51.428;6.682;2023-03-22T05:23:41;11.00;;;6.80;;
11797;SDS011;5956;51.428;6.682;2023-03-22T05:26:08;7.63;;;6.40;;
11797;SDS011;5956;51.428;6.682;2023-03-22T05:28:34;8.63;;;6.23;;
11797;SDS011;5956;51.428;6.682;2023-03-22T05:31:03;9.70;;;7.17;;
11797;SDS011;5956;51.428;6.682;2023-03-22T05:33:29;10.23;;;7.30;;
11797;SDS011;5956;51.428;6.682;2023-03-22T05:35:56;10.87;;;7.20;;
11797;SDS011;5956;51.428;6.682;2023-03-22T05:38:22;11.30;;;7.20;;
11797;SDS011;5956;51.428;6.682;2023-03-22T05:40:48;9.63;;;6.83;;
11797;SDS011;5956;51.428;6.682;2023-03-22T05:43:15;8.07;;;7.00;;
11797;SDS011;5956;51.428;6.682;2023-03-22T05:45:42;7.93;;;6.63;;
11797;SDS011;5956;51.428;6.682;2023-03-22T05:48:11;11.53;;;7.50;;
11797;SDS011;5956;51.428;6.682;2023-03-22T05:50:37;13.50;;;7.67;;
11797;SDS011;5956;51.428;6.682;2023-03-22T05:53:04;7.90;;;6.30;;
11797;SDS011;5956;51.428;6.682;2023-03-22T05:55:31;11.33;;;7.07;;
11797;SDS011;5956;51.428;6.682;2023-03-22T05:57:57;11.20;;;7.47;;
11797;SDS011;5956;51.428;6.682;2023-03-22T06:00:25;9.73;;;7.53;;
11797;SDS011;5956;51.428;6.682;2023-03-22T06:02:52;9.33;;;7.50;;
11797;SDS011;5956;51.428;6.682;2023-03-22T06:05:22;9.10;;;7.10;;
11797;SDS011;5956;51.428;6.682;2023-03-22T06:07:49;9.53;;;6.90;;
11797;SDS011;5956;51.428;6.682;2023-03-22T06:10:15;10.60;;;7.23;;
11797;SDS011;5956;51.428;6.682;2023-03-22T06:12:42;11.80;;;7.20;;
11797;SDS011;5956;51.428;6.682;2023-03-22T06:15:09;8.67;;;6.87;;
11797;SDS011;5956;51.428;6.682;2023-03-22T06:17:36;10.77;;;7.17;;
11797;SDS011;5956;51.428;6.682;2023-03-22T06:20:02;10.67;;;7.57;;
11797;SDS011;5956;51.428;6.682;2023-03-22T06:22:35;10.00;;;7.73;;
11797;SDS011;5956;51.428;6.682;2023-03-22T06:25:01;11.00;;;7.53;;
11797;SDS011;5956;51.428;6.682;2023-03-22T06:27:28;11.97;;;6.87;;
11797;SDS011;5956;51.428;6.682;2023-03-22T06:29:54;11.90;;;7.60;;
11797;SDS011;5956;51.428;6.682;2023-03-22T06:32:21;9.60;;;7.20;;
11797;SDS011;5956;51.428;6.682;2023-03-22T06:34:48;10.43;;;6.73;;
11797;SDS011;5956;51.428;6.682;2023-03-22T06:37:15;12.77;;;6.97;;
11797;SDS011;5956;51.428;6.682;2023-03-22T06:39:43;9.90;;;6.87;;
11797;SDS011;5956;51.428;6.682;2023-03-22T06:42:09;15.00;;;7.20;;
11797;SDS011;5956;51.428;6.682;2023-03-22T06:44:36;8.90;;;5.67;;
11797;SDS011;5956;51.428;6.682;2023-03-22T06:47:02;10.07;;;5.67;;
11797;SDS011;5956;51.428;6.682;2023-03-22T06:49:29;7.77;;;5.80;;
11797;SDS011;5956;51.428;6.682;2023-03-22T06:51:55;9.73;;;5.33;;
11797;SDS011;5956;51.428;6.682;2023-03-22T06:54:22;7.67;;;5.27;;
11797;SDS011;5956;51.428;6.682;2023-03-22T06:56:49;7.63;;;4.80;;
11797;SDS011;5956;51.428;6.682;2023-03-22T06:59:16;6.57;;;4.30;;
11797;SDS011;5956;51.428;6.682;2023-03-22T07:01:42;10.00;;;5.17;;
11797;SDS011;5956;51.428;6.682;2023-03-22T07:04:09;9.07;;;5.43;;
11797;SDS011;5956;51.428;6.682;2023-03-22T07:06:35;10.73;;;5.37;;
11797;SDS011;5956;51.428;6.682;2023-03-22T07:09:02;7.83;;;5.17;;
11797;SDS011;5956;51.428;6.682;2023-03-22T07:11:28;9.67;;;4.77;;
11797;SDS011;5956;51.428;6.682;2023-03-22T07:13:56;7.50;;;4.37;;
11797;SDS011;5956;51.428;6.682;2023-03-22T07:16:23;7.07;;;4.20;;
11797;SDS011;5956;51.428;6.682;2023-03-22T07:18:49;6.07;;;4.30;;
11797;SDS011;5956;51.428;6.682;2023-03-22T07:21:16;5.87;;;4.13;;
11797;SDS011;5956;51.428;6.682;2023-03-22T07:23:42;9.77;;;4.30;;
11797;SDS011;5956;51.428;6.682;2023-03-22T07:26:09;8.43;;;3.50;;
11797;SDS011;5956;51.428;6.682;2023-03-22T07:28:37;11.53;;;3.30;;
11797;SDS011;5956;51.428;6.682;2023-03-22T07:31:08;7.87;;;2.73;;
11797;SDS011;5956;51.428;6.682;2023-03-22T07:33:35;6.93;;;3.17;;
11797;SDS011;5956;51.428;6.682;2023-03-22T07:36:02;6.57;;;3.40;;
11797;SDS011;5956;51.428;6.682;2023-03-22T07:38:29;6.40;;;3.37;;
11797;SDS011;5956;51.428;6.682;2023-03-22T07:40:55;3.93;;;2.63;;
11797;SDS011;5956;51.428;6.682;2023-03-22T07:43:22;6.57;;;2.63;;
11797;SDS011;5956;51.428;6.682;2023-03-22T07:45:48;9.23;;;3.20;;
11797;SDS011;5956;51.428;6.682;2023-03-22T07:48:16;7.67;;;2.60;;
11797;SDS011;5956;51.428;6.682;2023-03-22T07:50:43;4.30;;;2.43;;
11797;SDS011;5956;51.428;6.682;2023-03-22T07:53:09;5.40;;;2.50;;
11797;SDS011;5956;51.428;6.682;2023-03-22T07:55:36;8.37;;;2.93;;
11797;SDS011;5956;51.428;6.682;2023-03-22T07:58:03;3.67;;;2.47;;
11797;SDS011;5956;51.428;6.682;2023-03-22T08:00:30;3.33;;;2.60;;
11797;SDS011;5956;51.428;6.682;2023-03-22T08:02:56;5.70;;;2.47;;
11797;SDS011;5956;51.428;6.682;2023-03-22T08:05:24;3.90;;;1.90;;
11797;SDS011;5956;51.428;6.682;2023-03-22T08:07:51;4.33;;;2.20;;
11797;SDS011;5956;51.428;6.682;2023-03-22T08:10:18;6.00;;;2.30;;
11797;SDS011;5956;51.428;6.682;2023-03-22T08:12:45;5.27;;;2.27;;
11797;SDS011;5956;51.428;6.682;2023-03-22T08:15:11;5.27;;;2.00;;
11797;SDS011;5956;51.428;6.682;2023-03-22T08:17:38;4.83;;;2.20;;
11797;SDS011;5956;51.428;6.682;2023-03-22T08:20:05;4.07;;;2.00;;
11797;SDS011;5956;51.428;6.682;2023-03-22T08:22:34;1.93;;;1.63;;
11797;SDS011;5956;51.428;6.682;2023-03-22T08:25:00;5.27;;;2.10;;
11797;SDS011;5956;51.428;6.682;2023-03-22T08:27:27;3.77;;;2.10;;
11797;SDS011;5956;51.428;6.682;2023-03-22T08:29:53;5.00;;;2.70;;
11797;SDS011;5956;51.428;6.682;2023-03-22T08:32:20;4.37;;;1.83;;
11797;SDS011;5956;51.428;6.682;2023-03-22T08:34:46;4.60;;;2.33;;
11797;SDS011;5956;51.428;6.682;2023-03-22T08:37:13;6.27;;;2.70;;
11797;SDS011;5956;51.428;6.682;2023-03-22T08:39:41;3.43;;;1.93;;
11797;SDS011;5956;51.428;6.682;2023-03-22T08:42:08;6.57;;;2.10;;
11797;SDS011;5956;51.428;6.682;2023-03-22T08:44:34;5.83;;;2.30;;
11797;SDS011;5956;51.428;6.682;2023-03-22T08:47:01;6.70;;;2.10;;
11797;SDS011;5956;51.428;6.682;2023-03-22T08:49:27;4.97;;;2.10;;
11797;SDS011;5956;51.428;6.682;2023-03-22T08:51:55;5.50;;;2.40;;
11797;SDS011;5956;51.428;6.682;2023-03-22T08:54:22;4.43;;;2.07;;
11797;SDS011;5956;51.428;6.682;2023-03-22T08:56:52;5.00;;;2.10;;
11797;SDS011;5956;51.428;6.682;2023-03-22T08:59:19;5.40;;;2.40;;
11797;SDS011;5956;51.428;6.682;2023-03-22T09:01:45;7.80;;;2.33;;
11797;SDS011;5956;51.428;6.682;2023-03-22T09:04:11;7.27;;;2.50;;
11797;SDS011;5956;51.428;6.682;2023-03-22T09:06:38;7.63;;;2.43;;
11797;SDS011;5956;51.428;6.682;2023-03-22T09:09:07;9.87;;;2.13;;
11797;SDS011;5956;51.428;6.682;2023-03-22T09:11:33;3.57;;;2.20;;
11797;SDS011;5956;51.428;6.682;2023-03-22T09:14:02;4.37;;;2.47;;
11797;SDS011;5956;51.428;6.682;2023-03-22T09:16:29;3.53;;;2.10;;
11797;SDS011;5956;51.428;6.682;2023-03-22T09:18:55;4.47;;;2.40;;
11797;SDS011;5956;51.428;6.682;2023-03-22T09:21:22;6.27;;;2.30;;
11797;SDS011;5956;51.428;6.682;2023-03-22T09:23:48;5.33;;;2.23;;
11797;SDS011;5956;51.428;6.682;2023-03-22T09:26:15;3.57;;;1.73;;
11797;SDS011;5956;51.428;6.682;2023-03-22T09:28:41;4.70;;;2.07;;
11797;SDS011;5956;51.428;6.682;2023-03-22T09:31:10;4.63;;;2.13;;
11797;SDS011;5956;51.428;6.682;2023-03-22T09:33:37;5.97;;;2.27;;
11797;SDS011;5956;51.428;6.682;2023-03-22T09:36:05;4.70;;;2.27;;
11797;SDS011;5956;51.428;6.682;2023-03-22T09:38:32;5.93;;;2.27;;
11797;SDS011;5956;51.428;6.682;2023-03-22T09:41:00;6.20;;;2.20;;
11797;SDS011;5956;51.428;6.682;2023-03-22T09:43:28;5.80;;;2.07;;
11797;SDS011;5956;51.428;6.682;2023-03-22T09:45:55;4.83;;;2.20;;
11797;SDS011;5956;51.428;6.682;2023-03-22T09:48:26;4.43;;;2.50;;
11797;SDS011;5956;51.428;6.682;2023-03-22T09:50:54;6.43;;;2.33;;
11797;SDS011;5956;51.428;6.682;2023-03-22T09:53:21;4.80;;;2.47;;
11797;SDS011;5956;51.428;6.682;2023-03-22T09:55:49;6.43;;;2.87;;
11797;SDS011;5956;51.428;6.682;2023-03-22T09:58:20;5.80;;;2.10;;
11797;SDS011;5956;51.428;6.682;2023-03-22T10:00:50;5.20;;;2.27;;
11797;SDS011;5956;51.428;6.682;2023-03-22T10:03:20;2.97;;;2.10;;
11797;SDS011;5956;51.428;6.682;2023-03-22T10:05:50;5.87;;;2.73;;
11797;SDS011;5956;51.428;6.682;2023-03-22T10:11:20;3.60;;;2.20;;
11797;SDS011;5956;51.428;6.682;2023-03-22T10:13:52;5.33;;;2.10;;
11797;SDS011;5956;51.428;6.682;2023-03-22T10:16:23;6.97;;;2.20;;
11797;SDS011;5956;51.428;6.682;2023-03-22T10:18:51;5.20;;;2.70;;
11797;SDS011;5956;51.428;6.682;2023-03-22T10:21:20;3.03;;;2.13;;
11797;SDS011;5956;51.428;6.682;2023-03-22T10:23:48;7.23;;;2.20;;
11797;SDS011;5956;51.428;6.682;2023-03-22T10:26:16;3.47;;;2.03;;
11797;SDS011;5956;51.428;6.682;2023-03-22T10:28:44;7.20;;;2.47;;
11797;SDS011;5956;51.428;6.682;2023-03-22T10:31:14;7.37;;;2.47;;
11797;SDS011;5956;51.428;6.682;2023-03-22T10:33:41;4.90;;;1.90;;
11797;SDS011;5956;51.428;6.682;2023-03-22T10:36:14;5.67;;;2.27;;
11797;SDS011;5956;51.428;6.682;2023-03-22T10:38:44;4.50;;;2.30;;
11797;SDS011;5956;51.428;6.682;2023-03-22T10:41:12;4.50;;;2.00;;
11797;SDS011;5956;51.428;6.682;2023-03-22T10:43:40;4.73;;;2.00;;
11797;SDS011;5956;51.428;6.682;2023-03-22T10:46:11;4.07;;;1.93;;
11797;SDS011;5956;51.428;6.682;2023-03-22T10:48:39;4.67;;;2.00;;
11797;SDS011;5956;51.428;6.682;2023-03-22T10:51:08;4.07;;;2.10;;
11797;SDS011;5956;51.428;6.682;2023-03-22T10:53:39;4.67;;;2.20;;
11797;SDS011;5956;51.428;6.682;2023-03-22T10:56:10;3.97;;;2.03;;
11797;SDS011;5956;51.428;6.682;2023-03-22T10:58:37;4.43;;;2.20;;
11797;SDS011;5956;51.428;6.682;2023-03-22T11:01:04;6.37;;;2.00;;
11797;SDS011;5956;51.428;6.682;2023-03-22T11:03:35;5.13;;;2.30;;
11797;SDS011;5956;51.428;6.682;2023-03-22T11:06:04;4.97;;;1.87;;
11797;SDS011;5956;51.428;6.682;2023-03-22T11:08:37;5.43;;;2.33;;
11797;SDS011;5956;51.428;6.682;2023-03-22T11:11:04;2.83;;;1.90;;
11797;SDS011;5956;51.428;6.682;2023-03-22T11:13:33;4.90;;;1.90;;
11797;SDS011;5956;51.428;6.682;2023-03-22T11:16:00;4.23;;;2.13;;
11797;SDS011;5956;51.428;6.682;2023-03-22T11:18:28;7.10;;;2.20;;
11797;SDS011;5956;51.428;6.682;2023-03-22T11:20:57;5.23;;;2.20;;
11797;SDS011;5956;51.428;6.682;2023-03-22T11:23:24;3.07;;;1.80;;
11797;SDS011;5956;51.428;6.682;2023-03-22T11:25:54;4.27;;;2.17;;
11797;SDS011;5956;51.428;6.682;2023-03-22T11:28:25;6.83;;;2.23;;
11797;SDS011;5956;51.428;6.682;2023-03-22T11:31:04;5.37;;;1.83;;
11797;SDS011;5956;51.428;6.682;2023-03-22T11:33:30;5.20;;;2.10;;
11797;SDS011;5956;51.428;6.682;2023-03-22T11:35:57;4.23;;;1.77;;
11797;SDS011;5956;51.428;6.682;2023-03-22T11:38:25;5.70;;;2.13;;
11797;SDS011;5956;51.428;6.682;2023-03-22T11:40:54;3.73;;;1.60;;
11797;SDS011;5956;51.428;6.682;2023-03-22T11:43:21;4.03;;;2.30;;
11797;SDS011;5956;51.428;6.682;2023-03-22T11:45:49;3.80;;;1.73;;
11797;SDS011;5956;51.428;6.682;2023-03-22T11:48:19;3.17;;;1.83;;
11797;SDS011;5956;51.428;6.682;2023-03-22T11:50:46;4.63;;;1.87;;
11797;SDS011;5956;51.428;6.682;2023-03-22T11:53:14;5.60;;;1.93;;
11797;SDS011;5956;51.428;6.682;2023-03-22T11:55:42;2.97;;;1.77;;
11797;SDS011;5956;51.428;6.682;2023-03-22T11:58:18;5.77;;;2.00;;
11797;SDS011;5956;51.428;6.682;2023-03-22T12:00:46;3.27;;;1.70;;
11797;SDS011;5956;51.428;6.682;2023-03-22T12:03:19;3.57;;;1.70;;
11797;SDS011;5956;51.428;6.682;2023-03-22T12:05:47;3.70;;;1.70;;
11797;SDS011;5956;51.428;6.682;2023-03-22T12:08:16;3.97;;;1.90;;
11797;SDS011;5956;51.428;6.682;2023-03-22T12:10:44;6.53;;;1.80;;
11797;SDS011;5956;51.428;6.682;2023-03-22T12:13:13;5.83;;;2.00;;
11797;SDS011;5956;51.428;6.682;2023-03-22T12:15:41;3.03;;;1.50;;
11797;SDS011;5956;51.428;6.682;2023-03-22T12:18:13;3.53;;;1.77;;
11797;SDS011;5956;51.428;6.682;2023-03-22T12:20:43;3.60;;;1.77;;
11797;SDS011;5956;51.428;6.682;2023-03-22T12:23:13;3.67;;;1.53;;
11797;SDS011;5956;51.428;6.682;2023-03-22T12:25:41;3.47;;;1.90;;
11797;SDS011;5956;51.428;6.682;2023-03-22T12:28:11;3.83;;;2.07;;
11797;SDS011;5956;51.428;6.682;2023-03-22T12:30:39;5.20;;;2.30;;
11797;SDS011;5956;51.428;6.682;2023-03-22T12:33:08;3.60;;;2.07;;
11797;SDS011;5956;51.428;6.682;2023-03-22T12:35:37;3.37;;;1.70;;
11797;SDS011;5956;51.428;6.682;2023-03-22T12:38:21;4.97;;;1.97;;
11797;SDS011;5956;51.428;6.682;2023-03-22T12:40:48;2.60;;;1.87;;
11797;SDS011;5956;51.428;6.682;2023-03-22T12:43:17;3.47;;;1.97;;
11797;SDS011;5956;51.428;6.682;2023-03-22T12:45:47;4.17;;;2.10;;
11797;SDS011;5956;51.428;6.682;2023-03-22T12:48:17;3.87;;;2.07;;
11797;SDS011;5956;51.428;6.682;2023-03-22T12:50:46;3.10;;;1.63;;
11797;SDS011;5956;51.428;6.682;2023-03-22T12:53:16;2.93;;;1.53;;
11797;SDS011;5956;51.428;6.682;2023-03-22T12:55:44;4.63;;;2.00;;
11797;SDS011;5956;51.428;6.682;2023-03-22T12:58:19;1.83;;;1.40;;
11797;SDS011;5956;51.428;6.682;2023-03-22T13:00:47;4.13;;;1.83;;
11797;SDS011;5956;51.428;6.682;2023-03-22T13:03:18;3.20;;;1.90;;
11797;SDS011;5956;51.428;6.682;2023-03-22T13:05:48;2.60;;;1.93;;
11797;SDS011;5956;51.428;6.682;2023-03-22T13:08:19;2.17;;;1.50;;
11797;SDS011;5956;51.428;6.682;2023-03-22T13:10:57;4.80;;;2.40;;
11797;SDS011;5956;51.428;6.682;2023-03-22T13:13:39;3.20;;;1.97;;
11797;SDS011;5956;51.428;6.682;2023-03-22T13:16:12;3.60;;;1.90;;
11797;SDS011;5956;51.428;6.682;2023-03-22T13:18:55;5.23;;;2.17;;
11797;SDS011;5956;51.428;6.682;2023-03-22T13:21:24;6.20;;;2.17;;
11797;SDS011;5956;51.428;6.682;2023-03-22T13:23:54;5.43;;;2.17;;
11797;SDS011;5956;51.428;6.682;2023-03-22T13:26:22;4.77;;;1.90;;
11797;SDS011;5956;51.428;6.682;2023-03-22T13:28:54;3.83;;;2.13;;
11797;SDS011;5956;51.428;6.682;2023-03-22T13:31:28;7.20;;;2.13;;
11797;SDS011;5956;51.428;6.682;2023-03-22T13:33:59;4.77;;;1.73;;
11797;SDS011;5956;51.428;6.682;2023-03-22T13:36:26;4.50;;;2.20;;
11797;SDS011;5956;51.428;6.682;2023-03-22T13:38:57;3.43;;;2.00;;
11797;SDS011;5956;51.428;6.682;2023-03-22T13:41:27;2.70;;;1.80;;
11797;SDS011;5956;51.428;6.682;2023-03-22T13:43:55;4.43;;;2.23;;
11797;SDS011;5956;51.428;6.682;2023-03-22T13:49:25;3.87;;;2.00;;
11797;SDS011;5956;51.428;6.682;2023-03-22T13:51:53;6.93;;;2.37;;
11797;SDS011;5956;51.428;6.682;2023-03-22T13:54:22;4.37;;;1.83;;
11797;SDS011;5956;51.428;6.682;2023-03-22T13:56:53;2.80;;;1.90;;
11797;SDS011;5956;51.428;6.682;2023-03-22T13:59:23;7.33;;;2.40;;
11797;SDS011;5956;51.428;6.682;2023-03-22T14:01:51;2.93;;;1.70;;
11797;SDS011;5956;51.428;6.682;2023-03-22T14:04:20;4.57;;;1.87;;
11797;SDS011;5956;51.428;6.682;2023-03-22T14:06:49;6.97;;;2.33;;
11797;SDS011;5956;51.428;6.682;2023-03-22T14:09:19;6.43;;;2.10;;
11797;SDS011;5956;51.428;6.682;2023-03-22T14:11:51;4.37;;;2.10;;
11797;SDS011;5956;51.428;6.682;2023-03-22T14:14:19;4.87;;;1.97;;
11797;SDS011;5956;51.428;6.682;2023-03-22T14:16:48;4.87;;;2.00;;
11797;SDS011;5956;51.428;6.682;2023-03-22T14:19:16;4.33;;;1.83;;
11797;SDS011;5956;51.428;6.682;2023-03-22T14:21:45;3.87;;;2.37;;
11797;SDS011;5956;51.428;6.682;2023-03-22T14:24:14;4.33;;;2.00;;
11797;SDS011;5956;51.428;6.682;2023-03-22T14:26:42;3.00;;;1.80;;
11797;SDS011;5956;51.428;6.682;2023-03-22T14:29:12;4.10;;;1.90;;
11797;SDS011;5956;51.428;6.682;2023-03-22T14:31:40;4.33;;;2.00;;
11797;SDS011;5956;51.428;6.682;2023-03-22T14:34:09;5.40;;;2.27;;
11797;SDS011;5956;51.428;6.682;2023-03-22T14:36:37;4.10;;;1.80;;
11797;SDS011;5956;51.428;6.682;2023-03-22T14:39:05;5.17;;;2.13;;
11797;SDS011;5956;51.428;6.682;2023-03-22T14:41:33;2.80;;;1.70;;
11797;SDS011;5956;51.428;6.682;2023-03-22T14:44:00;4.30;;;2.23;;
11797;SDS011;5956;51.428;6.682;2023-03-22T14:46:31;3.90;;;1.87;;
11797;SDS011;5956;51.428;6.682;2023-03-22T14:48:59;2.73;;;1.73;;
11797;SDS011;5956;51.428;6.682;2023-03-22T14:51:28;5.20;;;1.60;;
11797;SDS011;5956;51.428;6.682;2023-03-22T14:53:55;7.10;;;1.93;;
11797;SDS011;5956;51.428;6.682;2023-03-22T14:56:25;3.37;;;1.87;;
11797;SDS011;5956;51.428;6.682;2023-03-22T14:58:54;4.43;;;2.20;;
11797;SDS011;5956;51.428;6.682;2023-03-22T15:01:22;6.03;;;1.70;;
11797;SDS011;5956;51.428;6.682;2023-03-22T15:03:53;3.20;;;1.93;;
11797;SDS011;5956;51.428;6.682;2023-03-22T15:06:21;5.20;;;2.07;;
11797;SDS011;5956;51.428;6.682;2023-03-22T15:08:48;6.10;;;2.20;;
11797;SDS011;5956;51.428;6.682;2023-03-22T15:11:15;3.57;;;2.00;;
11797;SDS011;5956;51.428;6.682;2023-03-22T15:13:42;3.73;;;1.77;;
11797;SDS011;5956;51.428;6.682;2023-03-22T15:16:10;3.57;;;1.80;;
11797;SDS011;5956;51.428;6.682;2023-03-22T15:18:39;3.37;;;2.23;;
11797;SDS011;5956;51.428;6.682;2023-03-22T15:21:08;5.90;;;1.73;;